createdAt,value
2022-11-21T00:01:28.862Z,94696.28
2022-11-21T00:04:31.098Z,94700.75
2022-11-21T00:07:32.745Z,94695.41
2022-11-21T00:10:36.104Z,94685.22
2022-11-21T00:13:39.569Z,94670.19
2022-11-21T00:16:41.274Z,94673.16
2022-11-21T00:19:43.018Z,94675.38
2022-11-21T00:22:44.691Z,94675.03
2022-11-21T00:25:46.396Z,94661.25
2022-11-21T00:28:49.489Z,94666.97
2022-11-21T00:31:51.192Z,94679.19
2022-11-21T00:34:52.985Z,94676.16
2022-11-21T00:37:54.697Z,94677.19
2022-11-21T00:40:56.404Z,94665.72
2022-11-21T00:43:59.526Z,94660.31
2022-11-21T00:47:01.343Z,94658.78
2022-11-21T00:50:03.228Z,94673.09
2022-11-21T00:53:04.939Z,94671.97
2022-11-21T00:56:06.620Z,94677.75
2022-11-21T00:59:09.654Z,94674.72
2022-11-21T01:02:11.324Z,94668.47
2022-11-21T01:05:13.052Z,94675.47
2022-11-21T01:08:14.846Z,94683.16
2022-11-21T01:11:17.736Z,94690.06
2022-11-21T01:14:20.894Z,94676.63
2022-11-21T01:17:22.640Z,94681.56
2022-11-21T01:20:24.447Z,94679.31
2022-11-21T01:23:26.426Z,94683.34
2022-11-21T01:26:28.736Z,94681.78
2022-11-21T01:29:31.891Z,94680.69
2022-11-21T01:32:33.678Z,94694.44
2022-11-21T01:35:35.379Z,94684.59
2022-11-21T01:38:37.657Z,94685.03
2022-11-21T01:41:40.372Z,94691.84
2022-11-21T01:44:51.073Z,94699.00
2022-11-21T01:47:53.069Z,94690.56
2022-11-21T01:50:56.244Z,94688.31
2022-11-21T01:54:00.901Z,94701.66
2022-11-21T01:57:04.989Z,94694.63
2022-11-21T02:00:10.002Z,94695.69
2022-11-21T02:03:13.534Z,94703.34
2022-11-21T02:06:15.720Z,94685.09
2022-11-21T02:09:18.214Z,94690.16
2022-11-21T02:12:23.032Z,94686.38
2022-11-21T02:15:27.388Z,94674.47
2022-11-21T02:18:29.170Z,94673.38
2022-11-21T02:21:39.754Z,94661.31
2022-11-21T02:24:44.758Z,94671.69
2022-11-21T02:27:49.009Z,94659.38
2022-11-21T02:30:50.733Z,94658.97
2022-11-21T02:33:52.638Z,94654.59
2022-11-21T02:36:54.503Z,94662.41
2022-11-21T02:39:57.266Z,94648.88
2022-11-21T02:43:02.675Z,94643.13
2022-11-21T02:46:04.393Z,94643.53
2022-11-21T02:49:06.828Z,94639.03
2022-11-21T02:52:08.573Z,94634.53
2022-11-21T02:55:10.217Z,94633.47
2022-11-21T02:58:13.470Z,94638.09
2022-11-21T03:01:15.171Z,94632.75
2022-11-21T03:04:16.994Z,94630.13
2022-11-21T03:07:18.688Z,94626.69
2022-11-21T03:10:20.393Z,94619.53
2022-11-21T03:13:23.449Z,94616.50
2022-11-21T03:16:25.267Z,94621.13
2022-11-21T03:19:27.206Z,94613.88
2022-11-21T03:22:28.879Z,94615.66
2022-11-21T03:25:30.586Z,94599.19
2022-11-21T03:28:33.710Z,94608.00
2022-11-21T03:31:35.644Z,94608.44
2022-11-21T03:34:37.402Z,94598.56
2022-11-21T03:37:39.137Z,94596.25
2022-11-21T03:40:40.830Z,94597.78
2022-11-21T03:43:43.886Z,94600.16
2022-11-21T03:46:46.141Z,94603.94
2022-11-21T03:49:47.866Z,94603.56
2022-11-21T03:52:49.563Z,94590.41
2022-11-21T03:55:51.237Z,94592.97
2022-11-21T03:58:54.342Z,94588.84
2022-11-21T04:01:56.045Z,94600.66
2022-11-21T04:04:57.783Z,94581.03
2022-11-21T04:07:59.483Z,94575.56
2022-11-21T04:11:01.186Z,94577.28
2022-11-21T04:14:04.415Z,94571.47
2022-11-21T04:17:06.099Z,94558.09
2022-11-21T04:20:08.234Z,94566.22
2022-11-21T04:23:09.864Z,94563.41
2022-11-21T04:26:11.562Z,94547.00
2022-11-21T04:29:14.649Z,94554.69
2022-11-21T04:32:16.369Z,94546.34
2022-11-21T04:35:18.452Z,94554.75
2022-11-21T04:38:20.212Z,94542.91
2022-11-21T04:41:21.933Z,94554.94
2022-11-21T04:44:25.070Z,94544.97
2022-11-21T04:47:26.901Z,94534.31
2022-11-21T04:50:28.581Z,94534.28
2022-11-21T04:53:30.273Z,94528.53
2022-11-21T04:56:32.034Z,94529.34
2022-11-21T04:59:35.104Z,94520.53
2022-11-21T05:02:36.838Z,94516.34
2022-11-21T05:05:38.727Z,94516.31
2022-11-21T05:08:40.386Z,94516.69
2022-11-21T05:11:42.028Z,94519.81
2022-11-21T05:14:45.107Z,94519.88
2022-11-21T05:17:46.792Z,94515.53
2022-11-21T05:20:48.541Z,94511.56
2022-11-21T05:23:50.201Z,94510.06
2022-11-21T05:26:51.937Z,94519.56
2022-11-21T05:29:55.018Z,94504.34
2022-11-21T05:32:56.707Z,94510.47
2022-11-21T05:35:58.408Z,94506.66
2022-11-21T05:39:00.052Z,94507.50
2022-11-21T05:42:03.367Z,94503.63
2022-11-21T05:45:07.459Z,94502.94
2022-11-21T05:48:09.238Z,94501.41
2022-11-21T05:51:11.149Z,94497.19
2022-11-21T05:54:13.126Z,94497.88
2022-11-21T05:57:14.762Z,94490.66
2022-11-21T06:00:18.395Z,94486.53
2022-11-21T06:03:20.068Z,94481.47
2022-11-21T06:06:24.871Z,94492.97
2022-11-21T06:09:26.810Z,94470.47
2022-11-21T06:12:28.551Z,94471.75
2022-11-21T06:15:31.590Z,94469.34
2022-11-21T06:18:33.975Z,94479.34
2022-11-21T06:21:35.579Z,94467.88
2022-11-21T06:24:37.275Z,94478.56
2022-11-21T06:27:38.905Z,94477.44
2022-11-21T06:30:41.947Z,94482.59
2022-11-21T06:33:44.172Z,94483.16
2022-11-21T06:36:45.843Z,94486.59
2022-11-21T06:39:47.529Z,94492.00
2022-11-21T06:42:49.195Z,94486.38
2022-11-21T06:45:52.259Z,94487.53
2022-11-21T06:48:54.034Z,94481.09
2022-11-21T06:51:55.715Z,94487.22
2022-11-21T06:54:57.382Z,94492.22
2022-11-21T06:57:59.330Z,94491.50
2022-11-21T07:01:05.204Z,94491.47
2022-11-21T07:04:06.869Z,94505.63
2022-11-21T07:07:08.572Z,94502.19
2022-11-21T07:10:10.476Z,94495.25
2022-11-21T07:13:12.176Z,94509.50
2022-11-21T07:16:15.247Z,94507.19
2022-11-21T07:19:16.908Z,94508.31
2022-11-21T07:22:18.608Z,94507.41
2022-11-21T07:25:20.211Z,94515.38
2022-11-21T07:28:21.938Z,94510.38
2022-11-21T07:31:25.093Z,94538.88
2022-11-21T07:34:26.790Z,94510.81
2022-11-21T07:37:28.516Z,94526.19
2022-11-21T07:40:30.383Z,94536.31
2022-11-21T07:43:32.098Z,94536.56
2022-11-21T07:46:35.124Z,94541.66
2022-11-21T07:49:36.779Z,94545.69
2022-11-21T07:52:38.451Z,94537.78
2022-11-21T07:55:40.995Z,94545.69
2022-11-21T07:58:42.903Z,94528.16
2022-11-21T08:01:46.597Z,94533.19
2022-11-21T08:04:48.471Z,94529.78
2022-11-21T08:07:50.506Z,94536.50
2022-11-21T08:10:52.207Z,94533.38
2022-11-21T08:13:53.921Z,94530.69
2022-11-21T08:16:57.203Z,94526.50
2022-11-21T08:19:58.902Z,94523.88
2022-11-21T08:23:00.708Z,94527.97
2022-11-21T08:26:02.413Z,94532.63
2022-11-21T08:29:04.060Z,94534.44
2022-11-21T08:32:07.120Z,94546.44
2022-11-21T08:35:08.931Z,94539.41
2022-11-21T08:38:10.996Z,94546.13
2022-11-21T08:41:17.438Z,94547.38
2022-11-21T08:44:19.547Z,94544.38
2022-11-21T08:47:22.685Z,94567.75
2022-11-21T08:50:24.758Z,94547.47
2022-11-21T08:53:26.543Z,94551.44
2022-11-21T08:56:28.470Z,94559.75
2022-11-21T08:59:30.083Z,94569.63
2022-11-21T09:02:33.154Z,94569.44
2022-11-21T09:05:35.138Z,94557.88
2022-11-21T09:08:36.830Z,94561.56
2022-11-21T09:11:38.492Z,94575.00
2022-11-21T09:14:40.147Z,94563.22
2022-11-21T09:17:43.222Z,94581.03
2022-11-21T09:20:45.087Z,94592.50
2022-11-21T09:23:46.978Z,94588.34
2022-11-21T09:26:48.869Z,94601.31
2022-11-21T09:29:54.104Z,94595.63
2022-11-21T09:33:00.694Z,94591.81
2022-11-21T09:36:02.382Z,94592.66
2022-11-21T09:39:04.439Z,94595.34
2022-11-21T09:42:19.965Z,94592.00
2022-11-21T09:45:23.473Z,94593.56
2022-11-21T09:48:30.933Z,94592.13
2022-11-21T09:51:33.104Z,94587.44
2022-11-21T09:54:39.578Z,94583.56
2022-11-21T09:57:41.306Z,94592.34
2022-11-21T10:00:43.013Z,94585.78
2022-11-21T10:03:47.329Z,94588.94
2022-11-21T10:06:54.135Z,94600.69
2022-11-21T10:10:06.244Z,94591.25
2022-11-21T10:13:18.307Z,94591.91
2022-11-21T10:16:23.325Z,94580.19
2022-11-21T10:19:34.591Z,94575.13
2022-11-21T10:22:48.844Z,94567.97
2022-11-21T10:25:54.618Z,94582.22
2022-11-21T10:28:59.666Z,94582.16
2022-11-21T10:32:02.887Z,94581.47
2022-11-21T10:35:14.341Z,94581.00
2022-11-21T10:38:20.718Z,94568.03
2022-11-21T10:41:24.824Z,94584.13
2022-11-21T10:44:27.328Z,94586.09
2022-11-21T10:47:32.193Z,94582.53
2022-11-21T10:50:40.148Z,94574.56
2022-11-21T10:53:41.842Z,94582.59
2022-11-21T10:56:43.529Z,94574.97
2022-11-21T10:59:56.527Z,94580.69
2022-11-21T11:02:59.914Z,94565.78
2022-11-21T11:06:03.058Z,94567.00
2022-11-21T11:09:04.895Z,94559.97
2022-11-21T11:12:23.600Z,94558.13
2022-11-21T11:15:26.194Z,94556.28
2022-11-21T11:18:28.361Z,94536.44
2022-11-21T11:21:41.781Z,94530.50
2022-11-21T11:24:56.111Z,94545.66
2022-11-21T11:28:06.396Z,94542.19
2022-11-21T11:31:08.263Z,94540.31
2022-11-21T11:34:12.606Z,94540.00
2022-11-21T11:37:20.079Z,94526.22
2022-11-21T11:40:25.750Z,94535.00
2022-11-21T11:43:31.454Z,94528.81
2022-11-21T11:46:38.613Z,94529.34
2022-11-21T11:49:42.252Z,94529.09
2022-11-21T11:52:48.398Z,94525.28
2022-11-21T11:55:51.874Z,94517.97
2022-11-21T11:58:56.073Z,94527.88
2022-11-21T12:01:59.594Z,94524.44
2022-11-21T12:05:04.868Z,94533.25
2022-11-21T12:11:41.218Z,94519.47
2022-11-21T12:14:47.710Z,94511.50
2022-11-21T12:17:51.824Z,94506.16
2022-11-21T12:20:57.438Z,94498.53
2022-11-21T12:24:02.905Z,94495.50
2022-11-21T12:27:10.848Z,94498.59
2022-11-21T12:30:25.090Z,94488.81
2022-11-21T12:33:27.085Z,94481.06
2022-11-21T12:36:34.215Z,94471.72
2022-11-21T12:39:48.084Z,94467.59
2022-11-21T12:42:59.186Z,94464.66
2022-11-21T12:46:07.423Z,94468.09
2022-11-21T12:49:14.168Z,94455.13
2022-11-21T12:52:22.025Z,94459.75
2022-11-21T12:55:35.176Z,94440.25
2022-11-21T12:58:39.981Z,94438.75
2022-11-21T13:01:47.777Z,94441.84
2022-11-21T13:04:49.934Z,94443.34
2022-11-21T13:07:55.087Z,94439.84
2022-11-21T13:11:03.709Z,94434.53
2022-11-21T13:14:10.094Z,94431.41
2022-11-21T13:17:16.456Z,94425.28
2022-11-21T13:20:21.469Z,94424.53
2022-11-21T13:23:36.473Z,94415.75
2022-11-21T13:27:01.900Z,94419.22
2022-11-21T13:30:21.970Z,94418.03
2022-11-21T13:33:41.927Z,94410.78
2022-11-21T13:36:45.345Z,94401.53
2022-11-21T13:39:48.046Z,94400.78
2022-11-21T13:43:31.445Z,94388.13
2022-11-21T13:46:41.099Z,94391.22
2022-11-21T13:49:47.878Z,94395.09
2022-11-21T13:52:57.989Z,94392.03
2022-11-21T13:56:02.602Z,94385.22
2022-11-21T13:59:10.458Z,94386.03
2022-11-21T14:02:23.514Z,94389.88
2022-11-21T14:05:34.601Z,94384.91
2022-11-21T14:08:37.696Z,94380.69
2022-11-21T14:11:40.477Z,94382.63
2022-11-21T14:14:46.813Z,94379.53
2022-11-21T14:17:49.858Z,94383.34
2022-11-21T14:20:53.311Z,94390.97
2022-11-21T14:23:57.921Z,94387.13
2022-11-21T14:26:59.703Z,94389.84
2022-11-21T14:30:01.897Z,94389.13
2022-11-21T14:33:24.586Z,94389.47
2022-11-21T14:36:27.091Z,94379.88
2022-11-21T14:39:43.512Z,94381.41
2022-11-21T14:42:47.105Z,94378.31
2022-11-21T14:45:49.071Z,94381.75
2022-11-21T14:48:50.833Z,94369.88
2022-11-21T14:51:54.257Z,94374.44
2022-11-21T14:58:20.918Z,94363.63
2022-11-21T15:01:23.644Z,94360.50
2022-11-21T15:04:30.634Z,94347.91
2022-11-21T15:07:35.569Z,94340.19
2022-11-21T15:10:39.292Z,94337.91
2022-11-21T15:14:12.415Z,94327.91
2022-11-21T15:17:07.561Z,94324.84
2022-11-21T15:20:18.526Z,94317.94
2022-11-21T15:23:27.236Z,94306.09
2022-11-21T15:26:31.381Z,94302.25
2022-11-21T15:29:35.483Z,94298.84
2022-11-21T15:32:52.042Z,94298.84
2022-11-21T15:35:54.426Z,94296.50
2022-11-21T15:38:57.048Z,94294.19
2022-11-21T15:42:13.560Z,94290.00
2022-11-21T15:45:25.693Z,94291.13
2022-11-21T15:48:27.415Z,94281.53
2022-11-21T15:51:59.497Z,94283.78
2022-11-21T15:54:53.691Z,94288.34
2022-11-21T15:57:55.451Z,94276.88
2022-11-21T16:01:00.406Z,94277.28
2022-11-21T16:04:03.341Z,94262.38
2022-11-21T16:07:05.065Z,94260.78
2022-11-21T16:10:10.129Z,94258.88
2022-11-21T16:13:17.332Z,94260.31
2022-11-21T16:16:21.169Z,94243.03
2022-11-21T16:19:23.342Z,94242.16
2022-11-21T16:22:25.437Z,94228.22
2022-11-21T16:25:27.115Z,94227.63
2022-11-21T16:28:29.055Z,94224.09
2022-11-21T16:31:32.220Z,94231.53
2022-11-21T16:34:34.243Z,94220.09
2022-11-21T16:37:35.936Z,94220.00
2022-11-21T16:40:37.951Z,94205.47
2022-11-21T16:43:45.451Z,94202.97
2022-11-21T16:46:48.731Z,94199.94
2022-11-21T16:49:51.790Z,94197.19
2022-11-21T16:52:53.853Z,94202.44
2022-11-21T16:56:00.081Z,94204.06
2022-11-21T16:59:02.899Z,94197.16
2022-11-21T17:02:09.513Z,94196.25
2022-11-21T17:05:11.609Z,94189.75
2022-11-21T17:08:13.765Z,94177.31
2022-11-21T17:11:17.508Z,94173.06
2022-11-21T17:14:19.348Z,94176.19
2022-11-21T17:17:22.910Z,94170.63
2022-11-21T17:20:24.763Z,94171.06
2022-11-21T17:23:26.812Z,94168.53
2022-11-21T17:26:29.026Z,94173.38
2022-11-21T17:29:31.100Z,94169.94
2022-11-21T17:32:38.327Z,94168.28
2022-11-21T17:35:40.621Z,94171.66
2022-11-21T17:38:42.899Z,94159.63
2022-11-21T17:41:45.036Z,94159.81
2022-11-21T17:44:47.422Z,94152.66
2022-11-21T17:47:51.476Z,94140.19
2022-11-21T17:51:00.068Z,94134.19
2022-11-21T17:54:02.633Z,94115.34
2022-11-21T17:57:05.220Z,94110.84
2022-11-21T18:00:08.448Z,94117.56
2022-11-21T18:03:12.811Z,94111.38
2022-11-21T18:06:16.388Z,94104.28
2022-11-21T18:09:19.623Z,94087.75
2022-11-21T18:12:22.144Z,94087.31
2022-11-21T18:15:24.097Z,94084.16
2022-11-21T18:18:28.360Z,94082.72
2022-11-21T18:21:31.093Z,94073.31
2022-11-21T18:24:33.729Z,94066.09
2022-11-21T18:27:36.060Z,94058.78
2022-11-21T18:30:38.364Z,94051.53
2022-11-21T18:33:45.249Z,94050.00
2022-11-21T18:36:47.704Z,94058.00
2022-11-21T18:39:51.543Z,94054.97
2022-11-21T18:42:54.245Z,94051.66
2022-11-21T18:46:01.988Z,94045.19
2022-11-21T18:49:07.738Z,94042.47
2022-11-21T18:52:10.679Z,94041.44
2022-11-21T18:55:13.673Z,94034.94
2022-11-21T18:58:15.912Z,94039.91
2022-11-21T19:01:19.194Z,94029.69
2022-11-21T19:04:25.220Z,94023.19
2022-11-21T19:07:27.631Z,94017.22
2022-11-21T19:10:43.047Z,94013.00
2022-11-21T19:13:47.660Z,94009.56
2022-11-21T19:16:50.060Z,93998.19
2022-11-21T19:19:54.132Z,93995.16
2022-11-21T19:22:56.612Z,93992.16
2022-11-21T19:26:01.991Z,93992.50
2022-11-21T19:29:04.528Z,93980.69
2022-11-21T19:32:07.611Z,93985.28
2022-11-21T19:35:13.143Z,93980.78
2022-11-21T19:38:15.681Z,93984.63
2022-11-21T19:41:20.540Z,93973.19
2022-11-21T19:44:22.699Z,93979.63
2022-11-21T19:47:27.477Z,93973.53
2022-11-21T19:50:31.580Z,93970.91
2022-11-21T19:53:34.886Z,93957.59
2022-11-21T19:56:37.527Z,93960.63
2022-11-21T19:59:43.871Z,93946.19
2022-11-21T20:02:48.679Z,93929.38
2022-11-21T20:05:53.597Z,93930.59
2022-11-21T20:08:56.969Z,93915.03
2022-11-21T20:12:00.168Z,93915.13
2022-11-21T20:15:02.611Z,93906.31
2022-11-21T20:18:04.933Z,93899.50
2022-11-21T20:21:08.516Z,93903.25
2022-11-21T20:24:11.929Z,93905.13
2022-11-21T20:27:14.453Z,93892.91
2022-11-21T20:30:17.070Z,93893.66
2022-11-21T20:33:19.599Z,93888.28
2022-11-21T20:36:27.152Z,93895.59
2022-11-21T20:39:29.896Z,93893.28
2022-11-21T20:42:32.180Z,93880.25
2022-11-21T20:46:07.965Z,93879.09
2022-11-21T20:48:57.142Z,93877.22
2022-11-21T20:55:28.237Z,93858.75
2022-11-21T20:58:31.241Z,93847.00
2022-11-21T21:01:33.712Z,93851.56
2022-11-21T21:04:36.208Z,93850.09
2022-11-21T21:07:39.433Z,93841.72
2022-11-21T21:11:04.680Z,93841.75
2022-11-21T21:14:03.166Z,93828.00
2022-11-21T21:17:05.318Z,93825.00
2022-11-21T21:20:08.124Z,93821.16
2022-11-21T21:23:11.112Z,93818.13
2022-11-21T21:26:13.865Z,93826.09
2022-11-21T21:29:16.814Z,93820.75
2022-11-21T21:32:18.429Z,93815.75
2022-11-21T21:35:20.067Z,93815.06
2022-11-21T21:38:23.128Z,93807.44
2022-11-21T21:41:25.607Z,93800.53
2022-11-21T21:44:32.785Z,93789.09
2022-11-21T21:47:35.029Z,93782.22
2022-11-21T21:50:36.694Z,93792.09
2022-11-21T21:53:40.111Z,93781.44
2022-11-21T21:56:41.729Z,93774.16
2022-11-21T21:59:43.354Z,93776.00
2022-11-21T22:02:44.987Z,93762.69
2022-11-21T22:05:46.647Z,93751.16
2022-11-21T22:08:49.852Z,93743.16
2022-11-21T22:11:51.512Z,93737.00
2022-11-21T22:14:53.144Z,93730.97
2022-11-21T22:17:54.782Z,93736.75
2022-11-21T22:20:56.660Z,93732.16
2022-11-21T22:24:24.068Z,93739.78
2022-11-21T22:27:21.892Z,93727.53
2022-11-21T22:30:23.527Z,93723.78
2022-11-21T22:33:26.240Z,93722.22
2022-11-21T22:36:27.899Z,93719.19
2022-11-21T22:39:30.988Z,93714.41
2022-11-21T22:42:32.670Z,93720.91
2022-11-21T22:45:34.380Z,93720.94
2022-11-21T22:48:36.063Z,93728.84
2022-11-21T22:51:37.713Z,93726.63
2022-11-21T22:54:40.760Z,93728.66
2022-11-21T22:57:42.405Z,93731.66
2022-11-21T23:00:44.127Z,93729.84
2022-11-21T23:03:45.801Z,93733.97
2022-11-21T23:06:47.443Z,93736.50
2022-11-21T23:09:50.440Z,93733.03
2022-11-21T23:12:52.301Z,93732.31
2022-11-21T23:15:53.975Z,93732.31
2022-11-21T23:18:55.991Z,93724.34
2022-11-21T23:21:57.589Z,93723.34
2022-11-21T23:25:00.680Z,93721.81
2022-11-21T23:28:02.327Z,93718.78
2022-11-21T23:31:03.940Z,93713.84
2022-11-21T23:34:05.585Z,93715.72
2022-11-21T23:37:07.294Z,93701.72
2022-11-21T23:40:11.011Z,93696.41
2022-11-21T23:43:12.667Z,93678.63
2022-11-21T23:46:14.428Z,93676.34
2022-11-21T23:49:16.102Z,93677.78
2022-11-21T23:52:17.756Z,93678.94
2022-11-21T23:55:21.018Z,93669.78
2022-11-21T23:58:22.784Z,93670.81
